Time;durP1;ratioP1;P1;durP2;ratioP2;P2;SDS_P1;SDS_P2;PMS_P1;PMS_P2;Temp;Humidity;BMP_temperature;BMP_pressure;BME280_temperature;BME280_humidity;BME280_pressure;Samples;Min_cycle;Max_cycle;Signal;HPM_P1;HPM_P2
2021/08/16 00:02:24;;;;;;;24.60;12.37;;;;;;;19.72;67.94;99339.13;4918190;29;20501;-88
2021/08/16 00:04:50;;;;;;;23.40;12.80;;;;;;;19.74;67.94;99341.53;4919183;29;20046;-89
2021/08/16 00:07:17;;;;;;;17.00;12.77;;;;;;;19.80;68.20;99353.88;4918252;29;20040;-95
2021/08/16 00:09:43;;;;;;;23.05;12.73;;;;;;;;;;4918375;29;20138;-88
2021/08/16 00:12:10;;;;;;;18.80;12.32;;;;;;;;;;4918682;29;20036;-88
2021/08/16 00:14:36;;;;;;;17.90;13.00;;;;;;;19.64;68.77;99365.16;4918663;29;20054;-87
2021/08/16 00:17:04;;;;;;;21.85;13.07;;;;;;;19.56;68.96;99357.88;4884225;29;20073;-92
2021/08/16 00:19:30;;;;;;;19.43;13.50;;;;;;;19.39;69.25;99343.34;4898716;29;20066;-94
2021/08/16 00:21:56;;;;;;;25.53;13.23;;;;;;;19.47;69.33;99356.16;4887128;29;20138;-88
2021/08/16 00:24:22;;;;;;;18.37;13.27;;;;;;;19.46;69.39;99359.28;4916076;29;20296;-88
2021/08/16 00:26:50;;;;;;;24.27;14.25;;;;;;;19.38;69.74;99352.03;4916039;29;20131;-88
2021/08/16 00:29:17;;;;;;;21.25;13.55;;;;;;;19.26;69.56;99330.84;4915535;29;20052;-87
2021/08/16 00:31:43;;;;;;;;;;;;;;;19.48;69.81;99370.81;4920729;29;20532;-88
2021/08/16 00:34:09;;;;;;;20.47;13.10;;;;;;;19.37;69.84;99362.34;4903468;29;19923;-88
2021/08/16 00:36:35;;;;;;;23.63;13.38;;;;;;;19.19;70.34;99358.44;4905152;29;20413;-88
2021/08/16 00:39:02;;;;;;;24.35;13.25;;;;;;;19.11;70.86;99357.53;4917723;29;20110;-89
2021/08/16 00:41:28;;;;;;;22.63;13.00;;;;;;;19.20;70.80;99373.91;4906770;29;20040;-88
2021/08/16 00:43:56;;;;;;;24.67;14.03;;;;;;;19.10;70.86;99361.44;4933442;29;20091;-88
2021/08/16 00:46:22;;;;;;;23.40;13.30;;;;;;;18.95;70.89;99338.25;4913489;29;20119;-90
2021/08/16 00:48:49;;;;;;;26.63;14.18;;;;;;;19.06;70.95;99357.81;4918430;29;20044;-88
2021/08/16 00:51:16;;;;;;;20.30;13.20;;;;;;;18.94;71.01;99333.06;4916907;29;20055;-87
2021/08/16 00:53:44;;;;;;;29.58;14.23;;;;;;;19.00;71.05;99351.78;4933874;29;20060;-88
2021/08/16 00:56:11;;;;;;;24.13;13.88;;;;;;;18.94;71.49;99356.06;4921298;29;20079;-88
2021/08/16 00:58:39;;;;;;;22.67;14.15;;;;;;;18.91;71.86;99372.59;4906134;29;20043;-88
2021/08/16 01:01:05;;;;;;;27.42;15.30;;;;;;;18.81;71.71;99356.56;4938096;29;20117;-88
2021/08/16 01:03:38;;;;;;;26.30;14.98;;;;;;;18.79;71.88;99359.72;4922180;29;20039;-88
2021/08/16 01:06:06;;;;;;;28.20;14.68;;;;;;;18.88;71.91;99370.56;4938573;29;20036;-88
2021/08/16 01:08:32;;;;;;;20.23;14.30;;;;;;;18.77;71.95;99360.09;4905931;29;20146;-94
2021/08/16 01:10:58;;;;;;;23.15;14.80;;;;;;;18.60;72.20;99348.63;4937621;29;20051;-88
2021/08/16 01:13:24;;;;;;;22.38;15.15;;;;;;;18.74;72.61;99379.38;4939443;29;20039;-88
2021/08/16 01:16:03;;;;;;;30.53;14.13;;;;;;;18.62;72.73;99355.41;4934229;29;20067;-88
2021/08/16 01:18:32;;;;;;;22.90;14.60;;;;;;;18.59;72.58;99353.38;4919266;29;20055;-90
2021/08/16 01:21:03;;;;;;;27.42;14.00;;;;;;;18.61;72.46;99353.00;4934715;29;20039;-88
2021/08/16 01:23:30;;;;;;;26.00;14.27;;;;;;;18.67;72.72;99373.69;4927810;29;20035;-87
2021/08/16 01:25:56;;;;;;;26.73;15.30;;;;;;;18.45;73.19;99358.63;4939025;29;20083;-87
2021/08/16 01:28:24;;;;;;;26.20;15.48;;;;;;;18.38;73.60;99372.34;4920629;29;20068;-96
2021/08/16 01:30:55;;;;;;;26.10;15.38;;;;;;;18.26;73.85;99370.50;4937271;29;20123;-92
2021/08/16 01:33:23;;;;;;;26.48;14.85;;;;;;;18.22;74.20;99364.88;4889357;29;20055;-87
2021/08/16 01:35:50;;;;;;;25.48;14.77;;;;;;;18.02;74.40;99344.69;4937329;29;20493;-88
2021/08/16 01:38:21;;;;;;;23.30;14.13;;;;;;;18.19;74.44;99382.22;4936857;29;20090;-88
2021/08/16 01:40:48;;;;;;;25.60;15.77;;;;;;;18.12;74.87;99386.78;4920426;29;20055;-88
2021/08/16 01:43:14;;;;;;;30.90;16.45;;;;;;;18.05;74.98;99388.22;4939667;29;20066;-93
2021/08/16 01:45:40;;;;;;;23.53;15.90;;;;;;;18.05;75.28;99382.69;4920424;29;20454;-88
2021/08/16 01:48:07;;;;;;;28.92;15.55;;;;;;;17.90;75.21;99368.91;4921749;29;20111;-95
2021/08/16 01:50:33;;;;;;;30.00;17.60;;;;;;;17.97;75.27;99375.38;4937133;29;20529;-87
2021/08/16 01:53:00;;;;;;;30.67;17.50;;;;;;;17.93;75.10;99366.22;4921965;29;20035;-94
2021/08/16 01:55:25;;;;;;;36.70;17.93;;;;;;;17.97;75.14;99380.94;4920499;29;20119;-89
2021/08/16 01:57:52;;;;;;;30.30;17.87;;;;;;;17.89;75.00;99370.88;4923534;29;20696;-88
2021/08/16 02:00:18;;;;;;;35.03;18.47;;;;;;;18.00;75.17;99387.72;4921734;29;20039;-87
2021/08/16 02:02:44;;;;;;;32.35;17.80;;;;;;;18.05;75.16;99399.31;4903367;29;20292;-92
2021/08/16 02:05:10;;;;;;;35.17;18.88;;;;;;;17.96;74.86;99378.53;4918957;29;20075;-88
2021/08/16 02:07:37;;;;;;;28.58;17.10;;;;;;;17.94;75.10;99386.38;4938873;29;20067;-88
2021/08/16 02:10:04;;;;;;;29.63;17.77;;;;;;;17.89;74.96;99370.09;4920600;29;20048;-87
2021/08/16 02:12:33;;;;;;;32.00;17.77;;;;;;;17.94;74.57;99383.59;4936765;29;20062;-88
2021/08/16 02:14:59;;;;;;;31.10;16.67;;;;;;;18.11;74.31;99412.84;4903668;29;20501;-87
2021/08/16 02:17:27;;;;;;;26.85;17.55;;;;;;;18.11;74.66;99416.41;4921271;29;20095;-89
2021/08/16 02:19:53;;;;;;;27.08;16.55;;;;;;;18.12;74.42;99409.72;4920120;29;20051;-88
2021/08/16 02:22:19;;;;;;;;;;;;;;;18.23;74.52;99430.13;4936926;29;20099;-90
2021/08/16 02:24:45;;;;;;;24.80;15.97;;;;;;;18.12;74.64;99408.94;4919485;29;19922;-88
2021/08/16 02:27:12;;;;;;;26.63;16.05;;;;;;;18.05;74.57;99398.50;4888751;29;20036;-88
2021/08/16 02:29:38;;;;;;;31.40;17.52;;;;;;;18.05;74.52;99390.22;4917295;29;20062;-94
2021/08/16 02:32:05;;;;;;;30.30;16.60;;;;;;;18.19;74.22;99417.38;4919112;29;20051;-89
2021/08/16 02:34:31;;;;;;;34.65;17.38;;;;;;;18.25;74.43;99429.78;4917178;29;20798;-87
2021/08/16 02:36:57;;;;;;;50.08;23.17;;;;;;;18.12;74.71;99406.16;4915324;29;20466;-94
2021/08/16 02:39:23;;;;;;;60.85;29.10;;;;;;;18.26;74.95;99426.63;4918129;29;20039;-87
2021/08/16 02:41:50;;;;;;;59.70;30.95;;;;;;;18.37;75.23;99446.22;4901946;29;20048;-95
2021/08/16 02:44:16;;;;;;;66.60;27.77;;;;;;;18.32;75.27;99432.69;4897405;29;20048;-87
2021/08/16 02:46:43;;;;;;;52.78;26.08;;;;;;;18.27;75.06;99421.91;4912333;29;20044;-87
2021/08/16 02:49:08;;;;;;;44.88;22.80;;;;;;;18.32;75.07;99421.63;4912485;29;20055;-89
2021/08/16 02:51:35;;;;;;;49.30;25.13;;;;;;;18.35;74.77;99426.44;4916928;29;20047;-86
2021/08/16 02:54:01;;;;;;;47.10;25.90;;;;;;;18.29;74.82;99414.84;4915502;29;20082;-85
2021/08/16 02:56:29;;;;;;;43.97;24.10;;;;;;;18.48;74.68;99438.97;4905163;29;20550;-85
2021/08/16 02:58:55;;;;;;;47.20;23.63;;;;;;;18.33;74.49;99405.81;4903571;29;20090;-85
2021/08/16 03:01:21;;;;;;;46.00;22.93;;;;;;;18.42;74.87;99426.59;4899388;29;20524;-93
2021/08/16 03:03:47;;;;;;;45.17;23.27;;;;;;;18.38;74.75;99427.69;4915727;29;20048;-87
2021/08/16 03:06:14;;;;;;;43.72;21.80;;;;;;;18.52;74.67;99448.16;4909759;29;20048;-87
2021/08/16 03:08:40;;;;;;;41.77;20.93;;;;;;;18.57;74.74;99446.25;4897565;29;20139;-87
2021/08/16 03:11:07;;;;;;;;;;;;;;;18.65;74.88;99442.50;4897753;29;20502;-87
2021/08/16 03:13:33;;;;;;;40.28;21.23;;;;;;;18.62;74.41;99437.69;4909480;29;20013;-86
2021/08/16 03:16:00;;;;;;;51.33;24.65;;;;;;;18.60;74.52;99440.78;4908347;29;20582;-88
2021/08/16 03:18:26;;;;;;;;;;;;;;;18.73;74.59;99469.19;4897330;29;20043;-86
2021/08/16 03:20:53;;;;;;;69.00;34.47;;;;;;;18.65;74.54;99456.34;4907975;29;19922;-85
2021/08/16 03:23:22;;;;;;;58.97;29.90;;;;;;;18.64;74.48;99435.31;4901700;29;20040;-87
2021/08/16 03:25:47;;;;;;;45.47;25.38;;;;;;;18.74;74.47;99454.16;4915586;29;20040;-86
2021/08/16 03:28:13;;;;;;;37.73;21.73;;;;;;;18.83;74.57;99463.06;4914872;29;20055;-94
2021/08/16 03:30:41;;;;;;;35.75;18.50;;;;;;;18.77;74.57;99445.13;4915927;29;20036;-86
2021/08/16 03:33:07;;;;;;;29.95;16.70;;;;;;;18.77;74.80;99451.50;4915075;29;20081;-93
2021/08/16 03:35:33;;;;;;;27.77;15.77;;;;;;;18.75;74.84;99442.72;4910601;29;20036;-84
2021/08/16 03:37:59;;;;;;;32.67;16.27;;;;;;;18.90;74.89;99465.16;4898952;29;20383;-87
2021/08/16 03:40:26;;;;;;;30.80;15.90;;;;;;;18.89;74.71;99455.25;4915275;29;20560;-89
2021/08/16 03:42:52;;;;;;;29.70;15.80;;;;;;;18.84;74.61;99441.69;4915446;29;20040;-84
2021/08/16 03:45:21;;;;;;;25.47;16.67;;;;;;;18.91;74.64;99453.75;4914179;29;20140;-84
2021/08/16 03:47:48;;;;;;;31.35;16.10;;;;;;;19.10;74.52;99479.81;4896486;29;20044;-85
2021/08/16 03:50:14;;;;;;;21.40;14.60;;;;;;;19.15;74.40;99482.28;4895256;29;20048;-85
2021/08/16 03:52:41;;;;;;;39.22;16.05;;;;;;;18.98;74.46;99453.88;4910427;29;20131;-86
2021/08/16 03:55:10;;;;;;;24.35;14.73;;;;;;;19.10;74.15;99463.97;4914042;29;20032;-84
2021/08/16 03:57:36;;;;;;;25.27;14.60;;;;;;;19.27;73.53;99487.69;4915482;29;20052;-85
2021/08/16 04:00:03;;;;;;;23.63;14.20;;;;;;;19.34;73.37;99484.25;4915054;29;20051;-84
2021/08/16 04:02:40;;;;;;;20.77;13.90;;;;;;;19.29;73.24;99473.44;4915128;29;20048;-85
2021/08/16 04:05:07;;;;;;;24.35;14.93;;;;;;;19.32;72.98;99476.28;4915137;29;20406;-85
2021/08/16 04:07:33;;;;;;;24.33;15.20;;;;;;;19.38;72.86;99485.91;4915010;29;20040;-84
2021/08/16 04:09:59;;;;;;;25.70;14.60;;;;;;;19.47;72.75;99500.34;4914944;29;20044;-85
2021/08/16 04:12:24;;;;;;;20.30;14.07;;;;;;;19.58;73.01;99502.50;4913946;29;20095;-84
2021/08/16 04:14:50;;;;;;;28.03;15.33;;;;;;;19.55;72.95;99494.91;4913744;29;20048;-86
2021/08/16 04:17:16;;;;;;;21.00;14.43;;;;;;;19.71;72.82;99499.19;4913332;29;20075;-85
2021/08/16 04:19:44;;;;;;;22.30;13.77;;;;;;;19.72;72.04;99488.91;4913618;29;20051;-85
2021/08/16 04:22:10;;;;;;;21.92;13.80;;;;;;;19.87;71.77;99492.72;4914537;29;20044;-86
2021/08/16 04:24:38;;;;;;;25.80;13.52;;;;;;;20.02;71.75;99508.41;4915614;29;20044;-94
2021/08/16 04:27:04;;;;;;;24.70;13.63;;;;;;;20.14;71.48;99510.22;4916391;29;20044;-89
2021/08/16 04:29:30;;;;;;;20.90;13.90;;;;;;;20.18;71.32;99517.41;4917658;29;20502;-80
2021/08/16 04:31:56;;;;;;;26.83;11.73;;;;;;;20.32;70.38;99505.72;4918827;29;20054;-81
2021/08/16 04:34:24;;;;;;;27.02;13.20;;;;;;;20.92;68.80;99512.50;4914506;29;20064;-82
2021/08/16 04:36:51;;;;;;;20.58;12.45;;;;;;;21.23;67.93;99512.09;4903971;29;20044;-87
2021/08/16 04:39:18;;;;;;;;;;;;;;;21.34;66.63;99515.00;4937653;29;20532;-80
2021/08/16 04:41:43;;;;;;;19.13;12.23;;;;;;;21.32;66.72;99509.84;4936781;29;19927;-81
2021/08/16 04:44:09;;;;;;;18.10;11.83;;;;;;;21.51;66.29;99510.84;4937207;29;20266;-80
2021/08/16 04:46:35;;;;;;;17.10;10.77;;;;;;;21.98;64.57;99509.28;4937444;29;20040;-81
2021/08/16 04:49:01;;;;;;;16.15;10.35;;;;;;;22.11;63.75;99495.84;4936765;29;20557;-81
2021/08/16 04:51:27;;;;;;;17.23;11.70;;;;;;;22.23;64.19;99506.72;4914126;29;20047;-81
2021/08/16 04:53:53;;;;;;;25.33;12.80;;;;;;;22.07;65.09;99506.19;4931035;29;20510;-83
2021/08/16 04:56:19;;;;;;;31.60;13.60;;;;;;;21.99;65.88;99511.69;4936748;29;20528;-83
2021/08/16 04:58:45;;;;;;;17.75;10.85;;;;;;;22.16;64.63;99512.25;4936436;29;20079;-83
2021/08/16 05:01:11;;;;;;;18.07;12.03;;;;;;;22.18;66.01;99507.88;4935228;29;20122;-87
2021/08/16 05:03:37;;;;;;;22.27;12.63;;;;;;;22.27;64.39;99504.75;4936658;29;20040;-84
2021/08/16 05:06:07;;;;;;;20.07;11.83;;;;;;;22.50;63.59;99501.72;4936761;29;20126;-84
2021/08/16 05:08:36;;;;;;;23.33;12.63;;;;;;;22.40;63.32;99488.53;4936606;29;20094;-84
2021/08/16 05:11:05;;;;;;;;;;;;;;;22.75;63.48;99496.31;4918289;29;20075;-84
2021/08/16 05:13:32;;;;;;;27.10;11.68;;;;;;;22.92;62.74;99489.22;4928039;29;19930;-84
2021/08/16 05:15:58;;;;;;;18.20;10.63;;;;;;;23.20;61.86;99500.47;4920387;29;20051;-84
2021/08/16 05:18:28;;;;;;;19.48;11.90;;;;;;;23.10;62.63;99500.44;4917510;29;20100;-84
2021/08/16 05:20:59;;;;;;;23.73;11.60;;;;;;;23.15;61.85;99509.25;4931495;29;20107;-84
2021/08/16 05:23:25;;;;;;;21.88;10.88;;;;;;;22.94;62.32;99509.16;4930101;29;20414;-87
2021/08/16 05:25:54;;;;;;;20.80;11.57;;;;;;;22.93;63.03;99499.19;4935435;29;20122;-88
2021/08/16 05:28:22;;;;;;;18.08;11.07;;;;;;;23.10;63.24;99503.22;4924182;29;20137;-84
2021/08/16 05:30:48;;;;;;;19.20;10.88;;;;;;;23.12;61.95;99503.66;4921537;29;20506;-87
2021/08/16 05:33:15;;;;;;;23.20;12.55;;;;;;;23.05;62.34;99501.63;4935006;29;20066;-83
2021/08/16 05:35:40;;;;;;;21.10;12.20;;;;;;;22.91;62.65;99487.59;4936256;29;20047;-83
2021/08/16 05:38:06;;;;;;;19.85;11.75;;;;;;;23.13;62.17;99500.47;4935063;29;20078;-84
2021/08/16 05:40:32;;;;;;;22.23;11.77;;;;;;;23.15;61.92;99509.25;4934747;29;20370;-84
2021/08/16 05:42:58;;;;;;;67.57;12.82;;;;;;;23.01;62.11;99484.06;4918888;29;20288;-83
2021/08/16 05:45:24;;;;;;;23.30;10.37;;;;;;;23.40;60.82;99509.28;4936611;29;20122;-82
2021/08/16 05:47:50;;;;;;;29.60;10.82;;;;;;;23.44;60.77;99512.09;4918255;29;20359;-83
2021/08/16 05:50:16;;;;;;;25.10;11.43;;;;;;;23.58;60.18;99509.34;4937050;29;20043;-88
2021/08/16 05:52:43;;;;;;;26.65;10.55;;;;;;;23.87;59.73;99510.22;4935066;29;20123;-87
2021/08/16 05:55:10;;;;;;;21.15;11.88;;;;;;;23.75;60.41;99501.44;4941180;29;20119;-88
2021/08/16 05:57:37;;;;;;;35.17;12.48;;;;;;;23.79;60.27;99511.38;4942756;29;20043;-86
2021/08/16 06:00:05;;;;;;;31.05;12.80;;;;;;;23.78;61.11;99509.81;4949786;29;20505;-90
2021/08/16 06:02:33;;;;;;;27.63;12.13;;;;;;;23.83;59.39;99509.38;4943744;29;20051;-80
2021/08/16 06:05:35;;;;;;;27.67;11.43;;;;;;;23.80;59.15;99512.19;4945455;29;20071;-83
2021/08/16 06:08:03;;;;;;;29.48;10.88;;;;;;;23.75;59.80;99515.38;4877694;29;20475;-81
2021/08/16 06:10:30;;;;;;;24.20;10.18;;;;;;;23.82;58.65;99518.97;4878459;29;20060;-80
2021/08/16 06:12:59;;;;;;;24.27;10.07;;;;;;;23.79;57.55;99530.94;4864101;29;20077;-86
2021/08/16 06:15:26;;;;;;;18.35;10.15;;;;;;;23.90;57.54;99528.13;4889877;29;20044;-80
2021/08/16 06:17:55;;;;;;;20.02;9.60;;;;;;;24.08;58.11;99526.16;4891418;29;20527;-88
2021/08/16 06:20:21;;;;;;;25.95;9.50;;;;;;;24.11;57.34;99530.16;4891325;29;20503;-89
2021/08/16 06:22:47;;;;;;;18.15;9.82;;;;;;;24.29;57.11;99528.13;4893281;29;20069;-80
2021/08/16 06:25:13;;;;;;;26.67;10.27;;;;;;;24.47;57.11;99527.34;4886630;29;20049;-84
2021/08/16 06:27:41;;;;;;;33.78;14.88;;;;;;;24.35;56.16;99522.94;4879805;29;20408;-89
2021/08/16 06:30:07;;;;;;;18.60;12.15;;;;;;;24.21;55.78;99517.38;4877335;29;20044;-89
2021/08/16 06:32:37;;;;;;;28.58;13.27;;;;;;;24.24;56.43;99530.53;4882692;29;20566;-90
2021/08/16 06:35:04;;;;;;;20.55;10.20;;;;;;;24.49;56.38;99536.94;4877536;29;20040;-90
2021/08/16 06:37:31;;;;;;;19.90;8.98;;;;;;;24.69;55.19;99539.28;4877685;29;20049;-80
2021/08/16 06:39:57;;;;;;;18.55;8.80;;;;;;;24.60;54.83;99526.53;4877012;29;20048;-84
2021/08/16 06:42:25;;;;;;;23.42;10.40;;;;;;;24.56;53.69;99522.94;4878272;29;20623;-90
2021/08/16 06:44:53;;;;;;;16.38;8.77;;;;;;;24.79;54.87;99536.44;4897971;29;20083;-89
2021/08/16 06:47:19;;;;;;;18.02;9.85;;;;;;;24.83;54.66;99536.44;4921099;29;20039;-88
2021/08/16 06:49:45;;;;;;;16.83;9.27;;;;;;;24.98;54.41;99537.22;4936685;29;20382;-88
2021/08/16 06:52:13;;;;;;;19.42;9.77;;;;;;;25.06;53.44;99524.78;4935049;29;20044;-87
2021/08/16 06:54:39;;;;;;;21.02;9.55;;;;;;;25.44;52.43;99530.63;4934987;29;20659;-78
2021/08/16 06:57:05;;;;;;;23.63;11.13;;;;;;;25.63;50.40;99535.72;4917831;29;20125;-88
2021/08/16 06:59:34;;;;;;;21.27;10.52;;;;;;;25.50;50.59;99534.59;4935211;29;20056;-79
2021/08/16 07:02:02;;;;;;;16.48;10.68;;;;;;;25.47;50.70;99533.41;4935572;29;20043;-77
2021/08/16 07:04:29;;;;;;;18.70;9.00;;;;;;;25.39;50.44;99551.44;4934937;29;20053;-77
2021/08/16 07:06:57;;;;;;;16.75;8.88;;;;;;;25.32;50.27;99531.88;4934257;29;20629;-87
2021/08/16 07:09:23;;;;;;;16.52;8.00;;;;;;;25.22;49.19;99529.94;4934542;29;20055;-77
2021/08/16 07:11:50;;;;;;;29.75;9.20;;;;;;;25.12;50.69;99527.97;4935547;29;20054;-91
2021/08/16 07:14:16;;;;;;;19.63;8.35;;;;;;;25.14;49.44;99539.56;4935135;29;20052;-90
2021/08/16 07:16:42;;;;;;;14.45;9.07;;;;;;;25.29;49.87;99533.47;4934819;29;20047;-83
2021/08/16 07:19:08;;;;;;;13.05;7.88;;;;;;;25.35;50.11;99533.88;4918128;29;20445;-87
2021/08/16 07:21:34;;;;;;;16.63;8.93;;;;;;;25.52;49.73;99540.56;4935386;29;20043;-87
2021/08/16 07:24:00;;;;;;;17.48;8.35;;;;;;;25.64;49.49;99540.09;4918268;29;20039;-90
2021/08/16 07:26:26;;;;;;;12.18;7.72;;;;;;;25.83;49.32;99538.00;4934640;29;20091;-91
2021/08/16 07:28:52;;;;;;;21.80;8.25;;;;;;;25.95;48.90;99540.31;4934616;29;20048;-94
2021/08/16 07:31:23;;;;;;;38.75;13.65;;;;;;;26.04;48.11;99537.06;4922678;29;20399;-88
2021/08/16 07:33:49;;;;;;;11.00;7.45;;;;;;;26.02;46.48;99543.06;4933543;29;20055;-81
2021/08/16 07:36:17;;;;;;;20.23;9.18;;;;;;;26.25;46.97;99556.47;4940396;29;20048;-92
2021/08/16 07:38:42;;;;;;;20.17;8.27;;;;;;;26.23;46.76;99545.69;4942308;29;20046;-90
2021/08/16 07:41:09;;;;;;;16.20;8.68;;;;;;;26.33;45.81;99546.81;4938063;29;20043;-91
2021/08/16 07:43:35;;;;;;;12.88;7.90;;;;;;;26.36;44.96;99545.97;4934460;29;20051;-89
2021/08/16 07:46:01;;;;;;;12.68;7.40;;;;;;;26.32;44.64;99536.00;4942065;29;20048;-88
2021/08/16 07:48:28;;;;;;;23.63;7.88;;;;;;;26.36;45.55;99540.38;4940408;29;20051;-82
2021/08/16 07:50:56;;;;;;;13.82;7.63;;;;;;;26.34;45.52;99542.00;4939342;29;20047;-83
2021/08/16 07:53:22;;;;;;;14.82;8.02;;;;;;;26.22;45.19;99529.28;4940933;29;20048;-82
2021/08/16 07:55:48;;;;;;;11.73;6.97;;;;;;;26.21;46.02;99536.88;4936764;29;20040;-83
2021/08/16 07:58:13;;;;;;;18.75;7.72;;;;;;;26.41;46.42;99539.13;4917707;29;20633;-85
2021/08/16 08:00:39;;;;;;;12.80;6.93;;;;;;;26.59;45.59;99541.75;4927095;29;20066;-80
2021/08/16 08:03:06;;;;;;;14.25;8.40;;;;;;;26.56;45.49;99548.22;4940440;28;20070;-90
2021/08/16 08:05:33;;;;;;;18.88;7.60;;;;;;;26.56;44.06;99535.00;4940725;29;20044;-89
2021/08/16 08:08:00;;;;;;;18.85;7.65;;;;;;;26.63;43.97;99539.75;4944217;29;20107;-81
2021/08/16 08:10:26;;;;;;;51.88;8.65;;;;;;;26.69;44.49;99524.84;4938933;29;20044;-87
2021/08/16 08:12:52;;;;;;;20.40;7.80;;;;;;;26.90;43.68;99531.44;4939017;29;20040;-89
2021/08/16 08:15:19;;;;;;;21.20;7.70;;;;;;;26.83;43.12;99529.50;4936753;29;20470;-81
2021/08/16 08:17:46;;;;;;;18.08;7.50;;;;;;;26.91;42.78;99541.41;4951171;29;20062;-86
2021/08/16 08:20:13;;;;;;;19.02;7.60;;;;;;;26.92;42.31;99541.03;4946630;29;20039;-83
2021/08/16 08:22:39;;;;;;;12.88;7.00;;;;;;;26.91;43.51;99544.22;4949763;29;20059;-86
2021/08/16 08:25:06;;;;;;;18.13;7.50;;;;;;;27.04;43.72;99536.06;4951661;29;20047;-83
2021/08/16 08:27:32;;;;;;;17.60;8.02;;;;;;;27.09;43.80;99539.22;4944171;29;20235;-91
2021/08/16 08:30:00;;;;;;;16.88;8.35;;;;;;;27.20;43.08;99541.13;4947733;29;20039;-90
2021/08/16 08:32:26;;;;;;;18.67;9.52;;;;;;;27.19;42.94;99528.31;4951915;29;20082;-91
2021/08/16 08:34:52;;;;;;;;;;;;;;;27.14;41.72;99527.53;4950247;29;20035;-81
2021/08/16 08:37:18;;;;;;;;;;;;;;;27.09;42.95;99530.78;4952387;29;19922;-81
2021/08/16 08:39:46;;;;;;;12.55;7.95;;;;;;;27.21;42.62;99521.03;4956951;29;19922;-81
2021/08/16 08:42:13;;;;;;;12.50;8.38;;;;;;;27.15;42.38;99511.50;4956596;29;20680;-83
2021/08/16 08:44:44;;;;;;;28.85;8.18;;;;;;;27.27;42.48;99522.16;4940104;29;20071;-77
2021/08/16 08:47:12;;;;;;;21.30;8.95;;;;;;;27.21;42.82;99509.81;4936602;29;20417;-79
2021/08/16 08:49:40;;;;;;;23.63;11.18;;;;;;;27.32;42.80;99520.91;4918114;29;20092;-80
2021/08/16 08:52:07;;;;;;;20.45;8.98;;;;;;;27.48;42.87;99531.50;4921754;29;20113;-82
2021/08/16 08:54:35;;;;;;;18.98;7.93;;;;;;;27.53;41.73;99514.19;4936943;29;20044;-87
2021/08/16 08:57:02;;;;;;;15.52;8.45;;;;;;;27.79;43.08;99529.47;4935134;29;20039;-83
2021/08/16 08:59:29;;;;;;;17.13;8.10;;;;;;;27.86;42.40;99526.56;4935281;29;20079;-81
2021/08/16 09:01:57;;;;;;;18.90;7.65;;;;;;;27.84;42.35;99524.16;4936888;29;20052;-85
2021/08/16 09:04:25;;;;;;;19.17;8.57;;;;;;;27.81;41.98;99524.22;4920198;29;20051;-83
2021/08/16 09:06:51;;;;;;;17.55;8.18;;;;;;;27.81;41.31;99527.03;4935218;29;20048;-83
2021/08/16 09:09:18;;;;;;;18.65;8.98;;;;;;;27.78;42.03;99528.69;4934252;29;20102;-87
2021/08/16 09:11:48;;;;;;;;;;;;;;;27.75;40.31;99520.25;4934750;29;20047;-88
2021/08/16 09:14:15;;;;;;;17.52;7.40;;;;;;;27.87;41.15;99520.50;4915066;29;20285;-88
2021/08/16 09:16:43;;;;;;;15.48;7.68;;;;;;;27.96;41.13;99517.16;4938911;29;20465;-86
2021/08/16 09:19:26;;;;;;;15.95;8.18;;;;;;;28.08;41.33;99525.00;4950635;29;20043;-86
2021/08/16 09:22:05;;;;;;;13.52;7.97;;;;;;;28.18;41.09;99528.84;4950699;29;20039;-86
2021/08/16 09:24:35;;;;;;;12.52;7.30;;;;;;;28.27;40.57;99522.66;4936565;29;20067;-86
2021/08/16 09:27:10;;;;;;;15.00;7.82;;;;;;;28.34;39.97;99528.97;4936232;29;20042;-88
2021/08/16 09:29:48;;;;;;;14.82;7.68;;;;;;;28.44;39.87;99523.59;4935932;29;20039;-90
2021/08/16 09:32:17;;;;;;;11.25;7.15;;;;;;;28.39;39.21;99524.91;4933344;29;20055;-82
2021/08/16 09:34:48;;;;;;;13.98;7.18;;;;;;;28.24;38.21;99540.38;4935713;29;20047;-85
2021/08/16 09:37:19;;;;;;;12.00;6.18;;;;;;;28.13;39.34;99534.94;4934887;29;20043;-85
2021/08/16 09:40:11;;;;;;;11.30;7.05;;;;;;;28.14;39.05;99525.28;4935773;29;20530;-84
2021/08/16 09:42:45;;;;;;;17.55;7.18;;;;;;;28.16;38.58;99517.22;4936662;29;20637;-86
2021/08/16 09:45:12;;;;;;;12.00;7.15;;;;;;;28.02;39.77;99514.66;4929533;29;20050;-78
2021/08/16 09:47:43;;;;;;;21.58;8.45;;;;;;;27.99;39.17;99523.94;4924806;29;20035;-80
2021/08/16 09:50:12;;;;;;;20.95;8.10;;;;;;;27.92;39.88;99519.25;4935969;29;20118;-87
2021/08/16 09:52:39;;;;;;;16.33;6.90;;;;;;;27.90;39.21;99527.28;4936150;29;20043;-83
2021/08/16 09:55:08;;;;;;;22.30;7.03;;;;;;;27.94;39.44;99518.81;4935760;29;20043;-88
2021/08/16 09:57:34;;;;;;;15.77;7.03;;;;;;;27.95;39.33;99523.22;4936029;29;20099;-87
2021/08/16 10:00:02;;;;;;;17.88;6.93;;;;;;;28.09;39.50;99534.22;4918239;29;20047;-87
2021/08/16 10:02:28;;;;;;;10.43;6.60;;;;;;;28.12;38.77;99526.97;4935422;29;20138;-88
2021/08/16 10:04:58;;;;;;;12.93;7.13;;;;;;;28.13;39.48;99523.69;4935429;29;20036;-87
2021/08/16 10:07:30;;;;;;;16.85;7.13;;;;;;;28.15;38.82;99526.91;4935623;29;20063;-88
2021/08/16 10:10:01;;;;;;;12.75;7.05;;;;;;;28.22;38.43;99532.38;4935806;29;20055;-89
2021/08/16 10:12:32;;;;;;;12.85;7.05;;;;;;;28.24;38.46;99523.50;4935702;29;20040;-79
2021/08/16 10:15:02;;;;;;;15.27;6.93;;;;;;;28.22;39.12;99523.16;4935035;29;20183;-89
2021/08/16 10:17:37;;;;;;;17.65;7.38;;;;;;;28.30;38.82;99521.81;4935514;29;20047;-88
2021/08/16 10:20:05;;;;;;;18.77;7.00;;;;;;;28.31;37.80;99529.00;4935405;29;20039;-88
2021/08/16 10:22:41;;;;;;;12.65;6.68;;;;;;;28.32;38.10;99513.75;4946311;29;20047;-89
2021/08/16 10:25:12;;;;;;;17.33;6.30;;;;;;;28.36;37.44;99517.28;4940370;29;20054;-79
2021/08/16 10:27:38;;;;;;;11.52;6.55;;;;;;;28.45;38.07;99520.38;4935834;29;20044;-89
2021/08/16 10:30:11;;;;;;;;;;;;;;;28.44;36.79;99520.78;4936453;29;20130;-89
2021/08/16 10:32:38;;;;;;;13.55;6.30;;;;;;;28.35;37.12;99518.50;4920403;29;19982;-94
2021/08/16 10:35:14;;;;;;;11.25;6.93;;;;;;;28.28;38.42;99513.81;4935769;29;20509;-83
2021/08/16 10:37:43;;;;;;;20.13;6.93;;;;;;;28.23;38.18;99527.56;4918722;29;20087;-83
2021/08/16 10:40:26;;;;;;;51.35;8.07;;;;;;;28.30;38.82;99521.81;4938553;29;20044;-88
2021/08/16 10:42:55;;;;;;;8.50;6.50;;;;;;;28.40;37.01;99511.63;4941540;29;20118;-84
2021/08/16 10:45:35;;;;;;;16.17;6.95;;;;;;;28.41;36.46;99513.19;4950706;29;20039;-79
2021/08/16 10:48:04;;;;;;;17.52;6.47;;;;;;;28.51;37.89;99520.66;4916518;29;20048;-82
2021/08/16 10:50:31;;;;;;;14.95;7.50;;;;;;;28.52;38.03;99511.00;4917286;29;20040;-84
2021/08/16 10:53:06;;;;;;;13.50;6.95;;;;;;;28.36;37.85;99508.06;4923800;29;20048;-81
2021/08/16 10:55:37;;;;;;;12.80;7.40;;;;;;;28.40;36.54;99497.56;4934826;29;20047;-85
2021/08/16 10:58:09;;;;;;;13.68;6.88;;;;;;;28.49;37.88;99503.44;4934143;29;20091;-84
2021/08/16 11:00:38;;;;;;;19.35;7.00;;;;;;;28.53;36.06;99501.34;4934106;29;20179;-91
2021/08/16 11:03:05;;;;;;;11.85;7.15;;;;;;;28.59;36.75;99507.25;4937766;29;20072;-87
2021/08/16 11:05:33;;;;;;;10.32;6.35;;;;;;;28.55;36.55;99504.53;4937099;29;20039;-86
2021/08/16 11:08:03;;;;;;;14.63;6.75;;;;;;;28.50;36.89;99488.13;4949920;29;20036;-93
2021/08/16 11:10:41;;;;;;;12.38;7.20;;;;;;;28.51;35.67;99500.97;4915654;29;20513;-88
2021/08/16 11:13:16;;;;;;;10.90;6.45;;;;;;;28.52;35.48;99499.75;4918053;29;20126;-87
2021/08/16 11:15:42;;;;;;;12.23;6.50;;;;;;;28.49;34.86;99489.38;4917379;29;20058;-86
2021/08/16 11:18:12;;;;;;;;;;;;;;;28.57;35.47;99480.34;4949703;29;20038;-86
2021/08/16 11:20:38;;;;;;;8.85;6.43;;;;;;;28.58;36.91;99472.72;4906558;29;19973;-92
2021/08/16 11:23:05;;;;;;;21.70;7.00;;;;;;;28.66;36.53;99470.56;4945534;29;20043;-87
2021/08/16 11:25:31;;;;;;;11.40;6.47;;;;;;;28.73;36.48;99478.84;4915541;29;20173;-92
2021/08/16 11:28:03;;;;;;;11.40;6.20;;;;;;;28.74;35.75;99472.81;4920218;29;20058;-91